sensor_id;sensor_type;location;lat;lon;timestamp;temperature;humidity
32322;DHT22;61553;48.994;8.940;2022-08-21T00:01:11;13.30;99.90
32322;DHT22;61553;48.994;8.940;2022-08-21T00:03:38;13.30;99.90
32322;DHT22;61553;48.994;8.940;2022-08-21T00:06:04;13.20;99.90
32322;DHT22;61553;48.994;8.940;2022-08-21T00:08:30;13.20;99.90
32322;DHT22;61553;48.994;8.940;2022-08-21T00:10:56;13.20;99.90
32322;DHT22;61553;48.994;8.940;2022-08-21T00:13:21;13.20;99.90
32322;DHT22;61553;48.994;8.940;2022-08-21T00:15:48;13.20;99.90
32322;DHT22;61553;48.994;8.940;2022-08-21T00:18:15;13.10;99.90
32322;DHT22;61553;48.994;8.940;2022-08-21T00:20:42;13.10;99.90
32322;DHT22;61553;48.994;8.940;2022-08-21T00:23:08;13.10;99.90
32322;DHT22;61553;48.994;8.940;2022-08-21T00:25:34;13.10;99.90
32322;DHT22;61553;48.994;8.940;2022-08-21T00:28:00;13.10;99.90
32322;DHT22;61553;48.994;8.940;2022-08-21T00:30:28;13.10;99.90
32322;DHT22;61553;48.994;8.940;2022-08-21T00:32:55;13.00;99.90
32322;DHT22;61553;48.994;8.940;2022-08-21T00:35:25;13.00;99.90
32322;DHT22;61553;48.994;8.940;2022-08-21T00:37:51;13.00;99.90
32322;DHT22;61553;48.994;8.940;2022-08-21T00:40:20;13.00;99.90
32322;DHT22;61553;48.994;8.940;2022-08-21T00:42:46;13.00;99.90
32322;DHT22;61553;48.994;8.940;2022-08-21T00:45:12;13.00;99.90
32322;DHT22;61553;48.994;8.940;2022-08-21T00:47:38;13.00;99.90
32322;DHT22;61553;48.994;8.940;2022-08-21T00:50:05;12.90;99.90
32322;DHT22;61553;48.994;8.940;2022-08-21T00:52:34;12.90;99.90
32322;DHT22;61553;48.994;8.940;2022-08-21T00:55:01;12.80;99.90
32322;DHT22;61553;48.994;8.940;2022-08-21T00:57:34;12.80;99.90
32322;DHT22;61553;48.994;8.940;2022-08-21T01:00:08;12.90;99.90
32322;DHT22;61553;48.994;8.940;2022-08-21T01:02:34;12.80;99.90
32322;DHT22;61553;48.994;8.940;2022-08-21T01:04:59;12.70;99.90
32322;DHT22;61553;48.994;8.940;2022-08-21T01:07:25;12.60;99.90
32322;DHT22;61553;48.994;8.940;2022-08-21T01:09:51;12.60;99.90
32322;DHT22;61553;48.994;8.940;2022-08-21T01:12:18;12.50;99.90
32322;DHT22;61553;48.994;8.940;2022-08-21T01:14:44;12.40;99.90
32322;DHT22;61553;48.994;8.940;2022-08-21T01:17:12;12.40;99.90
32322;DHT22;61553;48.994;8.940;2022-08-21T01:19:39;12.40;99.90
32322;DHT22;61553;48.994;8.940;2022-08-21T01:22:05;12.40;99.90
32322;DHT22;61553;48.994;8.940;2022-08-21T01:24:32;12.30;99.90
32322;DHT22;61553;48.994;8.940;2022-08-21T01:26:59;12.30;99.90
32322;DHT22;61553;48.994;8.940;2022-08-21T01:29:39;12.30;99.90
32322;DHT22;61553;48.994;8.940;2022-08-21T01:32:13;12.20;99.90
32322;DHT22;61553;48.994;8.940;2022-08-21T01:34:42;12.20;99.90
32322;DHT22;61553;48.994;8.940;2022-08-21T01:37:09;12.20;99.90
32322;DHT22;61553;48.994;8.940;2022-08-21T01:39:35;12.20;99.90
32322;DHT22;61553;48.994;8.940;2022-08-21T01:42:01;12.10;99.90
32322;DHT22;61553;48.994;8.940;2022-08-21T01:44:27;12.10;99.90
32322;DHT22;61553;48.994;8.940;2022-08-21T01:46:56;12.10;99.90
32322;DHT22;61553;48.994;8.940;2022-08-21T01:49:22;12.10;99.90
32322;DHT22;61553;48.994;8.940;2022-08-21T01:51:48;12.20;99.90
32322;DHT22;61553;48.994;8.940;2022-08-21T01:54:14;12.10;99.90
32322;DHT22;61553;48.994;8.940;2022-08-21T01:56:45;12.10;99.90
32322;DHT22;61553;48.994;8.940;2022-08-21T01:59:11;12.00;99.90
32322;DHT22;61553;48.994;8.940;2022-08-21T02:01:37;12.00;99.90
32322;DHT22;61553;48.994;8.940;2022-08-21T02:04:06;12.00;99.90
32322;DHT22;61553;48.994;8.940;2022-08-21T02:06:32;12.00;99.90
32322;DHT22;61553;48.994;8.940;2022-08-21T02:08:58;11.90;99.90
32322;DHT22;61553;48.994;8.940;2022-08-21T02:11:24;11.90;99.90
32322;DHT22;61553;48.994;8.940;2022-08-21T02:13:49;11.80;99.90
32322;DHT22;61553;48.994;8.940;2022-08-21T02:16:15;11.70;99.90
32322;DHT22;61553;48.994;8.940;2022-08-21T02:18:41;11.70;99.90
32322;DHT22;61553;48.994;8.940;2022-08-21T02:21:07;11.70;99.90
32322;DHT22;61553;48.994;8.940;2022-08-21T02:23:33;11.70;99.90
32322;DHT22;61553;48.994;8.940;2022-08-21T02:26:01;11.70;99.90
32322;DHT22;61553;48.994;8.940;2022-08-21T02:28:27;11.60;99.90
32322;DHT22;61553;48.994;8.940;2022-08-21T02:30:54;11.60;99.90
32322;DHT22;61553;48.994;8.940;2022-08-21T02:33:20;11.60;99.90
32322;DHT22;61553;48.994;8.940;2022-08-21T02:35:47;11.60;99.90
32322;DHT22;61553;48.994;8.940;2022-08-21T02:38:19;11.50;99.90
32322;DHT22;61553;48.994;8.940;2022-08-21T02:40:48;11.50;99.90
32322;DHT22;61553;48.994;8.940;2022-08-21T02:43:14;11.50;99.90
32322;DHT22;61553;48.994;8.940;2022-08-21T02:45:41;11.50;99.90
32322;DHT22;61553;48.994;8.940;2022-08-21T02:48:08;11.50;99.90
32322;DHT22;61553;48.994;8.940;2022-08-21T02:50:38;11.50;99.90
32322;DHT22;61553;48.994;8.940;2022-08-21T02:53:05;11.50;99.90
32322;DHT22;61553;48.994;8.940;2022-08-21T02:55:33;11.40;99.90
32322;DHT22;61553;48.994;8.940;2022-08-21T02:57:59;11.40;99.90
32322;DHT22;61553;48.994;8.940;2022-08-21T03:00:27;11.30;99.90
32322;DHT22;61553;48.994;8.940;2022-08-21T03:02:54;11.30;99.90
32322;DHT22;61553;48.994;8.940;2022-08-21T03:05:20;11.30;99.90
32322;DHT22;61553;48.994;8.940;2022-08-21T03:07:47;11.30;99.90
32322;DHT22;61553;48.994;8.940;2022-08-21T03:10:13;11.30;99.90
32322;DHT22;61553;48.994;8.940;2022-08-21T03:12:39;11.30;99.90
32322;DHT22;61553;48.994;8.940;2022-08-21T03:15:10;11.20;99.90
32322;DHT22;61553;48.994;8.940;2022-08-21T03:17:36;11.20;99.90
32322;DHT22;61553;48.994;8.940;2022-08-21T03:20:05;11.20;99.90
32322;DHT22;61553;48.994;8.940;2022-08-21T03:22:31;11.20;99.90
32322;DHT22;61553;48.994;8.940;2022-08-21T03:24:57;11.10;99.90
32322;DHT22;61553;48.994;8.940;2022-08-21T03:27:24;11.10;99.90
32322;DHT22;61553;48.994;8.940;2022-08-21T03:29:49;11.10;99.90
32322;DHT22;61553;48.994;8.940;2022-08-21T03:32:15;11.00;99.90
32322;DHT22;61553;48.994;8.940;2022-08-21T03:34:41;11.00;99.90
32322;DHT22;61553;48.994;8.940;2022-08-21T03:37:08;10.90;99.90
32322;DHT22;61553;48.994;8.940;2022-08-21T03:39:35;10.90;99.90
32322;DHT22;61553;48.994;8.940;2022-08-21T03:42:01;10.90;99.90
32322;DHT22;61553;48.994;8.940;2022-08-21T03:44:27;10.90;99.90
32322;DHT22;61553;48.994;8.940;2022-08-21T03:46:54;10.80;99.90
32322;DHT22;61553;48.994;8.940;2022-08-21T03:49:20;10.80;99.90
32322;DHT22;61553;48.994;8.940;2022-08-21T03:51:46;10.80;99.90
32322;DHT22;61553;48.994;8.940;2022-08-21T03:54:11;10.80;99.90
32322;DHT22;61553;48.994;8.940;2022-08-21T03:56:37;10.80;99.90
32322;DHT22;61553;48.994;8.940;2022-08-21T03:59:04;10.70;99.90
32322;DHT22;61553;48.994;8.940;2022-08-21T04:01:30;10.70;99.90
32322;DHT22;61553;48.994;8.940;2022-08-21T04:03:56;10.60;99.90
32322;DHT22;61553;48.994;8.940;2022-08-21T04:06:22;10.60;99.90
32322;DHT22;61553;48.994;8.940;2022-08-21T04:08:48;10.70;99.90
32322;DHT22;61553;48.994;8.940;2022-08-21T04:11:13;10.60;99.90
32322;DHT22;61553;48.994;8.940;2022-08-21T04:13:40;10.60;99.90
32322;DHT22;61553;48.994;8.940;2022-08-21T04:16:06;10.60;99.90
32322;DHT22;61553;48.994;8.940;2022-08-21T04:18:33;10.60;99.90
32322;DHT22;61553;48.994;8.940;2022-08-21T04:20:59;10.60;99.90
32322;DHT22;61553;48.994;8.940;2022-08-21T04:23:26;10.60;99.90
32322;DHT22;61553;48.994;8.940;2022-08-21T04:25:53;10.60;99.90
32322;DHT22;61553;48.994;8.940;2022-08-21T04:28:20;10.60;99.90
32322;DHT22;61553;48.994;8.940;2022-08-21T04:30:46;10.60;99.90
32322;DHT22;61553;48.994;8.940;2022-08-21T04:33:11;10.60;99.90
32322;DHT22;61553;48.994;8.940;2022-08-21T04:35:37;10.60;99.90
32322;DHT22;61553;48.994;8.940;2022-08-21T04:38:03;10.60;99.90
32322;DHT22;61553;48.994;8.940;2022-08-21T04:40:28;10.60;99.90
32322;DHT22;61553;48.994;8.940;2022-08-21T04:42:57;10.70;99.90
32322;DHT22;61553;48.994;8.940;2022-08-21T04:45:44;10.70;99.90
32322;DHT22;61553;48.994;8.940;2022-08-21T04:48:12;10.70;99.90
32322;DHT22;61553;48.994;8.940;2022-08-21T04:50:47;10.80;99.90
32322;DHT22;61553;48.994;8.940;2022-08-21T04:53:18;10.80;99.90
32322;DHT22;61553;48.994;8.940;2022-08-21T04:55:46;10.80;99.90
32322;DHT22;61553;48.994;8.940;2022-08-21T04:58:15;10.80;99.90
32322;DHT22;61553;48.994;8.940;2022-08-21T05:00:43;10.90;99.90
32322;DHT22;61553;48.994;8.940;2022-08-21T05:03:11;10.90;99.90
32322;DHT22;61553;48.994;8.940;2022-08-21T05:05:38;11.00;99.90
32322;DHT22;61553;48.994;8.940;2022-08-21T05:08:06;11.00;99.90
32322;DHT22;61553;48.994;8.940;2022-08-21T05:10:33;11.10;99.90
32322;DHT22;61553;48.994;8.940;2022-08-21T05:12:59;11.10;99.90
32322;DHT22;61553;48.994;8.940;2022-08-21T05:15:26;11.20;99.90
32322;DHT22;61553;48.994;8.940;2022-08-21T05:17:52;11.30;99.90
32322;DHT22;61553;48.994;8.940;2022-08-21T05:20:17;11.40;99.90
32322;DHT22;61553;48.994;8.940;2022-08-21T05:22:45;11.40;99.90
32322;DHT22;61553;48.994;8.940;2022-08-21T05:25:11;11.50;99.90
32322;DHT22;61553;48.994;8.940;2022-08-21T05:27:37;11.60;99.90
32322;DHT22;61553;48.994;8.940;2022-08-21T05:30:05;11.70;99.90
32322;DHT22;61553;48.994;8.940;2022-08-21T05:32:31;11.90;99.90
32322;DHT22;61553;48.994;8.940;2022-08-21T05:34:56;11.90;99.90
32322;DHT22;61553;48.994;8.940;2022-08-21T05:37:22;12.00;99.90
32322;DHT22;61553;48.994;8.940;2022-08-21T05:39:47;12.10;99.90
32322;DHT22;61553;48.994;8.940;2022-08-21T05:42:13;12.20;99.90
32322;DHT22;61553;48.994;8.940;2022-08-21T05:44:39;12.40;99.90
32322;DHT22;61553;48.994;8.940;2022-08-21T05:47:06;12.50;99.90
32322;DHT22;61553;48.994;8.940;2022-08-21T05:49:32;12.60;99.90
32322;DHT22;61553;48.994;8.940;2022-08-21T05:51:58;12.70;99.90
32322;DHT22;61553;48.994;8.940;2022-08-21T05:54:24;12.90;99.90
32322;DHT22;61553;48.994;8.940;2022-08-21T05:56:50;13.00;99.90
32322;DHT22;61553;48.994;8.940;2022-08-21T05:59:15;13.10;99.90
32322;DHT22;61553;48.994;8.940;2022-08-21T06:01:41;13.30;99.90
32322;DHT22;61553;48.994;8.940;2022-08-21T06:04:07;13.40;99.90
32322;DHT22;61553;48.994;8.940;2022-08-21T06:06:33;13.60;99.90
32322;DHT22;61553;48.994;8.940;2022-08-21T06:09:00;13.80;99.90
32322;DHT22;61553;48.994;8.940;2022-08-21T06:11:25;14.00;99.90
32322;DHT22;61553;48.994;8.940;2022-08-21T06:13:51;14.20;99.90
32322;DHT22;61553;48.994;8.940;2022-08-21T06:16:17;14.40;99.90
32322;DHT22;61553;48.994;8.940;2022-08-21T06:18:44;14.60;99.90
32322;DHT22;61553;48.994;8.940;2022-08-21T06:21:11;14.80;99.90
32322;DHT22;61553;48.994;8.940;2022-08-21T06:23:37;15.00;99.90
32322;DHT22;61553;48.994;8.940;2022-08-21T06:26:04;15.30;99.90
32322;DHT22;61553;48.994;8.940;2022-08-21T06:28:31;15.50;99.90
32322;DHT22;61553;48.994;8.940;2022-08-21T06:30:57;15.80;99.90
32322;DHT22;61553;48.994;8.940;2022-08-21T06:33:23;16.10;99.90
32322;DHT22;61553;48.994;8.940;2022-08-21T06:35:49;16.70;99.90
32322;DHT22;61553;48.994;8.940;2022-08-21T06:38:15;20.50;99.90
32322;DHT22;61553;48.994;8.940;2022-08-21T06:40:41;24.50;92.50
32322;DHT22;61553;48.994;8.940;2022-08-21T06:43:09;27.70;71.80
32322;DHT22;61553;48.994;8.940;2022-08-21T06:45:36;30.10;60.80
32322;DHT22;61553;48.994;8.940;2022-08-21T06:48:02;32.80;53.30
32322;DHT22;61553;48.994;8.940;2022-08-21T06:50:28;34.90;47.30
32322;DHT22;61553;48.994;8.940;2022-08-21T06:53:11;36.80;43.40
32322;DHT22;61553;48.994;8.940;2022-08-21T06:55:37;37.10;41.20
32322;DHT22;61553;48.994;8.940;2022-08-21T06:58:04;36.20;41.00
32322;DHT22;61553;48.994;8.940;2022-08-21T07:00:31;38.10;40.00
32322;DHT22;61553;48.994;8.940;2022-08-21T07:02:57;39.70;38.20
32322;DHT22;61553;48.994;8.940;2022-08-21T07:05:26;40.70;36.20
32322;DHT22;61553;48.994;8.940;2022-08-21T07:07:52;40.90;35.70
32322;DHT22;61553;48.994;8.940;2022-08-21T07:10:17;41.90;34.80
32322;DHT22;61553;48.994;8.940;2022-08-21T07:12:43;42.60;34.30
32322;DHT22;61553;48.994;8.940;2022-08-21T07:15:09;43.10;33.60
32322;DHT22;61553;48.994;8.940;2022-08-21T07:17:35;43.90;33.50
32322;DHT22;61553;48.994;8.940;2022-08-21T07:20:01;44.30;32.80
32322;DHT22;61553;48.994;8.940;2022-08-21T07:22:28;43.90;33.10
32322;DHT22;61553;48.994;8.940;2022-08-21T07:24:54;43.90;32.70
32322;DHT22;61553;48.994;8.940;2022-08-21T07:27:20;42.40;33.40
32322;DHT22;61553;48.994;8.940;2022-08-21T07:29:45;41.50;34.30
32322;DHT22;61553;48.994;8.940;2022-08-21T07:32:11;42.70;33.40
32322;DHT22;61553;48.994;8.940;2022-08-21T07:34:36;42.80;33.70
32322;DHT22;61553;48.994;8.940;2022-08-21T07:37:02;42.70;33.20
32322;DHT22;61553;48.994;8.940;2022-08-21T07:39:28;42.20;33.00
32322;DHT22;61553;48.994;8.940;2022-08-21T07:41:53;39.90;34.30
32322;DHT22;61553;48.994;8.940;2022-08-21T07:44:19;40.70;33.90
32322;DHT22;61553;48.994;8.940;2022-08-21T07:46:45;39.60;34.40
32322;DHT22;61553;48.994;8.940;2022-08-21T07:49:10;39.20;34.70
32322;DHT22;61553;48.994;8.940;2022-08-21T07:51:36;39.70;34.70
32322;DHT22;61553;48.994;8.940;2022-08-21T07:54:01;38.60;35.50
32322;DHT22;61553;48.994;8.940;2022-08-21T07:56:28;38.10;35.80
32322;DHT22;61553;48.994;8.940;2022-08-21T07:58:55;37.90;36.30
32322;DHT22;61553;48.994;8.940;2022-08-21T08:01:23;39.70;35.10
32322;DHT22;61553;48.994;8.940;2022-08-21T08:03:49;41.60;33.60
32322;DHT22;61553;48.994;8.940;2022-08-21T08:06:15;42.80;32.90
32322;DHT22;61553;48.994;8.940;2022-08-21T08:08:44;43.40;32.20
32322;DHT22;61553;48.994;8.940;2022-08-21T08:11:11;43.30;32.00
32322;DHT22;61553;48.994;8.940;2022-08-21T08:13:47;43.80;32.30
32322;DHT22;61553;48.994;8.940;2022-08-21T08:16:13;44.60;31.20
32322;DHT22;61553;48.994;8.940;2022-08-21T08:18:39;45.00;31.20
32322;DHT22;61553;48.994;8.940;2022-08-21T08:21:07;45.20;30.80
32322;DHT22;61553;48.994;8.940;2022-08-21T08:23:33;45.20;30.50
32322;DHT22;61553;48.994;8.940;2022-08-21T08:25:59;45.40;30.50
32322;DHT22;61553;48.994;8.940;2022-08-21T08:28:25;45.00;30.30
32322;DHT22;61553;48.994;8.940;2022-08-21T08:30:52;45.70;30.20
32322;DHT22;61553;48.994;8.940;2022-08-21T08:33:18;45.00;30.00
32322;DHT22;61553;48.994;8.940;2022-08-21T08:35:46;45.20;29.90
32322;DHT22;61553;48.994;8.940;2022-08-21T08:38:13;45.90;29.50
32322;DHT22;61553;48.994;8.940;2022-08-21T08:41:10;46.40;29.40
32322;DHT22;61553;48.994;8.940;2022-08-21T08:43:38;46.20;29.10
32322;DHT22;61553;48.994;8.940;2022-08-21T08:46:20;46.30;29.40
32322;DHT22;61553;48.994;8.940;2022-08-21T08:49:18;47.20;29.20
32322;DHT22;61553;48.994;8.940;2022-08-21T08:51:52;47.50;28.80
32322;DHT22;61553;48.994;8.940;2022-08-21T08:54:32;47.60;29.30
32322;DHT22;61553;48.994;8.940;2022-08-21T08:57:00;47.60;29.00
32322;DHT22;61553;48.994;8.940;2022-08-21T09:00:03;45.60;29.00
32322;DHT22;61553;48.994;8.940;2022-08-21T09:02:21;46.40;28.80
32322;DHT22;61553;48.994;8.940;2022-08-21T09:04:49;46.20;28.60
32322;DHT22;61553;48.994;8.940;2022-08-21T09:07:40;46.90;28.70
32322;DHT22;61553;48.994;8.940;2022-08-21T09:10:21;46.30;28.90
32322;DHT22;61553;48.994;8.940;2022-08-21T09:13:07;46.50;28.00
32322;DHT22;61553;48.994;8.940;2022-08-21T09:21:09;47.30;28.40
32322;DHT22;61553;48.994;8.940;2022-08-21T09:27:07;46.80;28.10
32322;DHT22;61553;48.994;8.940;2022-08-21T09:29:35;46.60;27.80
32322;DHT22;61553;48.994;8.940;2022-08-21T09:32:05;46.10;28.40
32322;DHT22;61553;48.994;8.940;2022-08-21T09:34:34;46.20;28.10
32322;DHT22;61553;48.994;8.940;2022-08-21T09:36:59;46.10;27.80
32322;DHT22;61553;48.994;8.940;2022-08-21T09:39:29;47.00;27.80
32322;DHT22;61553;48.994;8.940;2022-08-21T09:44:27;47.50;27.80
32322;DHT22;61553;48.994;8.940;2022-08-21T09:46:54;47.40;27.80
32322;DHT22;61553;48.994;8.940;2022-08-21T09:49:36;47.50;27.50
32322;DHT22;61553;48.994;8.940;2022-08-21T09:52:04;45.40;28.00
32322;DHT22;61553;48.994;8.940;2022-08-21T09:54:37;44.80;28.40
32322;DHT22;61553;48.994;8.940;2022-08-21T09:59:54;46.30;28.00
32322;DHT22;61553;48.994;8.940;2022-08-21T10:02:38;47.10;27.70
32322;DHT22;61553;48.994;8.940;2022-08-21T10:05:15;47.60;27.60
32322;DHT22;61553;48.994;8.940;2022-08-21T10:07:41;48.40;27.00
32322;DHT22;61553;48.994;8.940;2022-08-21T10:10:32;48.60;27.20
32322;DHT22;61553;48.994;8.940;2022-08-21T10:13:17;47.00;27.50
32322;DHT22;61553;48.994;8.940;2022-08-21T10:24:22;47.30;27.30
32322;DHT22;61553;48.994;8.940;2022-08-21T10:40:26;43.30;29.00
32322;DHT22;61553;48.994;8.940;2022-08-21T10:46:33;40.40;29.60
32322;DHT22;61553;48.994;8.940;2022-08-21T10:57:09;34.80;33.70
32322;DHT22;61553;48.994;8.940;2022-08-21T11:02:22;33.80;34.30
32322;DHT22;61553;48.994;8.940;2022-08-21T11:05:10;33.40;34.60
32322;DHT22;61553;48.994;8.940;2022-08-21T11:07:39;33.00;35.50
32322;DHT22;61553;48.994;8.940;2022-08-21T11:10:15;32.90;35.90
32322;DHT22;61553;48.994;8.940;2022-08-21T11:13:12;32.90;35.10
32322;DHT22;61553;48.994;8.940;2022-08-21T11:16:16;33.20;35.40
32322;DHT22;61553;48.994;8.940;2022-08-21T11:24:51;33.20;36.00
32322;DHT22;61553;48.994;8.940;2022-08-21T11:27:33;32.50;36.50
32322;DHT22;61553;48.994;8.940;2022-08-21T11:30:00;31.60;37.50
32322;DHT22;61553;48.994;8.940;2022-08-21T11:35:38;31.60;37.20
32322;DHT22;61553;48.994;8.940;2022-08-21T11:38:40;31.70;36.80
32322;DHT22;61553;48.994;8.940;2022-08-21T11:41:23;31.60;37.50
32322;DHT22;61553;48.994;8.940;2022-08-21T11:44:10;31.80;38.30
32322;DHT22;61553;48.994;8.940;2022-08-21T11:49:43;31.60;38.80
32322;DHT22;61553;48.994;8.940;2022-08-21T11:52:32;31.60;38.20
32322;DHT22;61553;48.994;8.940;2022-08-21T11:55:08;31.00;38.40
32322;DHT22;61553;48.994;8.940;2022-08-21T11:57:57;31.10;39.70
32322;DHT22;61553;48.994;8.940;2022-08-21T12:02:57;30.90;38.80
32322;DHT22;61553;48.994;8.940;2022-08-21T12:05:31;31.10;39.00
32322;DHT22;61553;48.994;8.940;2022-08-21T12:08:34;31.20;38.00
32322;DHT22;61553;48.994;8.940;2022-08-21T12:13:28;31.20;38.70
32322;DHT22;61553;48.994;8.940;2022-08-21T12:16:15;31.00;39.00
32322;DHT22;61553;48.994;8.940;2022-08-21T12:18:42;31.00;39.30
32322;DHT22;61553;48.994;8.940;2022-08-21T12:23:57;30.50;39.10
32322;DHT22;61553;48.994;8.940;2022-08-21T12:26:28;30.50;39.00
32322;DHT22;61553;48.994;8.940;2022-08-21T12:31:53;30.90;38.80
32322;DHT22;61553;48.994;8.940;2022-08-21T12:34:20;30.90;38.30
32322;DHT22;61553;48.994;8.940;2022-08-21T12:36:57;30.90;38.30
32322;DHT22;61553;48.994;8.940;2022-08-21T12:39:26;31.00;38.00
32322;DHT22;61553;48.994;8.940;2022-08-21T12:42:05;31.00;37.70
32322;DHT22;61553;48.994;8.940;2022-08-21T12:44:39;31.10;37.90
32322;DHT22;61553;48.994;8.940;2022-08-21T12:50:07;31.00;37.40
32322;DHT22;61553;48.994;8.940;2022-08-21T12:53:15;31.00;37.70
32322;DHT22;61553;48.994;8.940;2022-08-21T12:55:47;31.00;37.70
32322;DHT22;61553;48.994;8.940;2022-08-21T12:58:23;31.10;38.30
32322;DHT22;61553;48.994;8.940;2022-08-21T13:00:56;31.00;38.30
32322;DHT22;61553;48.994;8.940;2022-08-21T13:03:23;31.00;38.30
32322;DHT22;61553;48.994;8.940;2022-08-21T13:05:49;31.10;38.40
32322;DHT22;61553;48.994;8.940;2022-08-21T13:08:20;31.10;38.30
32322;DHT22;61553;48.994;8.940;2022-08-21T13:10:48;30.90;38.00
32322;DHT22;61553;48.994;8.940;2022-08-21T13:13:23;30.70;37.80
32322;DHT22;61553;48.994;8.940;2022-08-21T13:16:02;30.70;38.00
32322;DHT22;61553;48.994;8.940;2022-08-21T13:18:31;30.20;37.90
32322;DHT22;61553;48.994;8.940;2022-08-21T13:21:16;30.20;38.30
32322;DHT22;61553;48.994;8.940;2022-08-21T13:23:41;30.20;38.60
32322;DHT22;61553;48.994;8.940;2022-08-21T13:26:16;30.10;38.80
32322;DHT22;61553;48.994;8.940;2022-08-21T13:28:42;30.30;38.70
32322;DHT22;61553;48.994;8.940;2022-08-21T13:31:10;30.50;38.60
32322;DHT22;61553;48.994;8.940;2022-08-21T13:33:37;30.70;38.80
32322;DHT22;61553;48.994;8.940;2022-08-21T13:36:14;30.70;38.70
32322;DHT22;61553;48.994;8.940;2022-08-21T13:38:44;30.40;39.00
32322;DHT22;61553;48.994;8.940;2022-08-21T13:43:56;29.40;40.00
32322;DHT22;61553;48.994;8.940;2022-08-21T13:46:24;29.00;40.70
32322;DHT22;61553;48.994;8.940;2022-08-21T13:48:53;28.80;40.90
32322;DHT22;61553;48.994;8.940;2022-08-21T13:51:19;28.40;41.50
32322;DHT22;61553;48.994;8.940;2022-08-21T13:53:50;28.20;41.90
32322;DHT22;61553;48.994;8.940;2022-08-21T13:56:31;27.90;41.90
32322;DHT22;61553;48.994;8.940;2022-08-21T13:58:59;27.80;42.30
32322;DHT22;61553;48.994;8.940;2022-08-21T14:01:30;27.80;41.90
32322;DHT22;61553;48.994;8.940;2022-08-21T14:04:37;27.90;41.60
32322;DHT22;61553;48.994;8.940;2022-08-21T14:07:19;28.10;41.60
32322;DHT22;61553;48.994;8.940;2022-08-21T14:09:46;28.50;41.50
32322;DHT22;61553;48.994;8.940;2022-08-21T14:12:19;28.70;40.70
32322;DHT22;61553;48.994;8.940;2022-08-21T14:14:50;29.00;40.10
32322;DHT22;61553;48.994;8.940;2022-08-21T14:17:29;29.20;39.60
32322;DHT22;61553;48.994;8.940;2022-08-21T14:19:54;29.20;39.90
32322;DHT22;61553;48.994;8.940;2022-08-21T14:22:40;29.40;39.50
32322;DHT22;61553;48.994;8.940;2022-08-21T14:25:31;29.50;39.40
32322;DHT22;61553;48.994;8.940;2022-08-21T14:30:33;29.80;38.20
32322;DHT22;61553;48.994;8.940;2022-08-21T14:33:00;30.00;37.70
32322;DHT22;61553;48.994;8.940;2022-08-21T14:35:26;30.00;37.50
32322;DHT22;61553;48.994;8.940;2022-08-21T14:37:52;30.00;37.10
32322;DHT22;61553;48.994;8.940;2022-08-21T14:40:21;30.00;37.30
32322;DHT22;61553;48.994;8.940;2022-08-21T14:42:47;30.10;37.70
32322;DHT22;61553;48.994;8.940;2022-08-21T14:45:27;30.00;37.20
32322;DHT22;61553;48.994;8.940;2022-08-21T14:47:54;29.90;37.40
32322;DHT22;61553;48.994;8.940;2022-08-21T14:50:20;30.00;37.40
32322;DHT22;61553;48.994;8.940;2022-08-21T14:52:45;30.00;37.20
32322;DHT22;61553;48.994;8.940;2022-08-21T14:55:13;29.80;36.90
32322;DHT22;61553;48.994;8.940;2022-08-21T14:57:47;29.70;37.10
32322;DHT22;61553;48.994;8.940;2022-08-21T15:00:15;29.80;37.80
32322;DHT22;61553;48.994;8.940;2022-08-21T15:02:43;29.70;37.40
32322;DHT22;61553;48.994;8.940;2022-08-21T15:05:09;29.70;37.90
32322;DHT22;61553;48.994;8.940;2022-08-21T15:07:34;29.60;37.40
32322;DHT22;61553;48.994;8.940;2022-08-21T15:10:00;29.70;37.50
32322;DHT22;61553;48.994;8.940;2022-08-21T15:12:26;29.80;37.30
32322;DHT22;61553;48.994;8.940;2022-08-21T15:14:52;29.80;37.20
32322;DHT22;61553;48.994;8.940;2022-08-21T15:17:18;29.80;36.80
32322;DHT22;61553;48.994;8.940;2022-08-21T15:19:44;29.60;36.60
32322;DHT22;61553;48.994;8.940;2022-08-21T15:22:10;29.60;36.50
32322;DHT22;61553;48.994;8.940;2022-08-21T15:24:35;29.50;37.30
32322;DHT22;61553;48.994;8.940;2022-08-21T15:27:03;29.50;37.50
32322;DHT22;61553;48.994;8.940;2022-08-21T15:29:30;29.40;36.80
32322;DHT22;61553;48.994;8.940;2022-08-21T15:32:01;29.20;37.10
32322;DHT22;61553;48.994;8.940;2022-08-21T15:34:30;29.30;37.30
32322;DHT22;61553;48.994;8.940;2022-08-21T15:36:56;29.30;37.30
32322;DHT22;61553;48.994;8.940;2022-08-21T15:39:24;29.20;37.40
32322;DHT22;61553;48.994;8.940;2022-08-21T15:41:50;29.10;36.90
32322;DHT22;61553;48.994;8.940;2022-08-21T15:44:16;29.20;37.40
32322;DHT22;61553;48.994;8.940;2022-08-21T15:46:42;29.20;37.00
32322;DHT22;61553;48.994;8.940;2022-08-21T15:49:10;29.10;37.10
32322;DHT22;61553;48.994;8.940;2022-08-21T15:51:36;29.10;37.80
32322;DHT22;61553;48.994;8.940;2022-08-21T15:54:02;29.10;37.50
32322;DHT22;61553;48.994;8.940;2022-08-21T15:56:34;29.00;37.10
32322;DHT22;61553;48.994;8.940;2022-08-21T15:59:08;29.00;37.10
32322;DHT22;61553;48.994;8.940;2022-08-21T16:01:35;28.90;36.90
32322;DHT22;61553;48.994;8.940;2022-08-21T16:04:02;28.90;37.20
32322;DHT22;61553;48.994;8.940;2022-08-21T16:06:29;28.80;37.10
32322;DHT22;61553;48.994;8.940;2022-08-21T16:08:54;28.80;37.50
32322;DHT22;61553;48.994;8.940;2022-08-21T16:11:20;28.70;36.90
32322;DHT22;61553;48.994;8.940;2022-08-21T16:13:46;28.70;37.00
32322;DHT22;61553;48.994;8.940;2022-08-21T16:16:16;28.70;37.00
32322;DHT22;61553;48.994;8.940;2022-08-21T16:18:43;28.60;36.80
32322;DHT22;61553;48.994;8.940;2022-08-21T16:21:09;28.60;36.80
32322;DHT22;61553;48.994;8.940;2022-08-21T16:23:35;28.50;36.80
32322;DHT22;61553;48.994;8.940;2022-08-21T16:26:05;28.50;37.20
32322;DHT22;61553;48.994;8.940;2022-08-21T16:28:31;28.40;37.20
32322;DHT22;61553;48.994;8.940;2022-08-21T16:30:58;28.40;37.30
32322;DHT22;61553;48.994;8.940;2022-08-21T16:33:38;28.30;37.80
32322;DHT22;61553;48.994;8.940;2022-08-21T16:36:06;28.30;37.60
32322;DHT22;61553;48.994;8.940;2022-08-21T16:38:33;28.20;38.30
32322;DHT22;61553;48.994;8.940;2022-08-21T16:41:01;28.00;38.10
32322;DHT22;61553;48.994;8.940;2022-08-21T16:43:28;28.00;38.30
32322;DHT22;61553;48.994;8.940;2022-08-21T16:45:56;27.90;38.60
32322;DHT22;61553;48.994;8.940;2022-08-21T16:48:23;27.80;38.60
32322;DHT22;61553;48.994;8.940;2022-08-21T16:50:49;27.70;38.40
32322;DHT22;61553;48.994;8.940;2022-08-21T16:53:14;27.60;38.80
32322;DHT22;61553;48.994;8.940;2022-08-21T16:55:40;27.50;38.90
32322;DHT22;61553;48.994;8.940;2022-08-21T16:58:12;27.40;38.90
32322;DHT22;61553;48.994;8.940;2022-08-21T17:00:41;27.40;39.00
32322;DHT22;61553;48.994;8.940;2022-08-21T17:03:12;27.40;38.90
32322;DHT22;61553;48.994;8.940;2022-08-21T17:05:38;27.20;39.50